Time;durP1;ratioP1;P1;durP2;ratioP2;P2;SDS_P1;SDS_P2;PMS_P1;PMS_P2;Temp;Humidity;BMP_temperature;BMP_pressure;BME280_temperature;BME280_humidity;BME280_pressure;Samples;Min_cycle;Max_cycle;Signal;HPM_P1;HPM_P2
2023/07/16 00:01:27;;;;;;;8.70;7.30;;;;;;;;;;5049425;28;20056;-67
2023/07/16 00:03:52;;;;;;;13.70;5.88;;;;;;;;;;5050448;28;20461;-67
2023/07/16 00:06:17;;;;;;;9.68;6.38;;;;;;;;;;5049361;28;20013;-68
2023/07/16 00:08:42;;;;;;;10.25;6.55;;;;;;;;;;5050347;28;20025;-69
2023/07/16 00:11:07;;;;;;;11.55;7.25;;;;;;;;;;5048958;28;20090;-68
2023/07/16 00:13:32;;;;;;;16.38;7.38;;;;;;;;;;5050224;28;20024;-69
2023/07/16 00:15:57;;;;;;;10.37;7.87;;;;;;;;;;5055580;28;20045;-69
2023/07/16 00:18:23;;;;;;;7.37;6.57;;;;;;;;;;5068404;28;20050;-68
2023/07/16 00:20:48;;;;;;;8.90;6.68;;;;;;;;;;5070251;28;20020;-67
2023/07/16 00:23:13;;;;;;;11.77;7.97;;;;;;;;;;5068591;28;20043;-69
2023/07/16 00:25:38;;;;;;;13.33;7.77;;;;;;;;;;5070155;28;20017;-68
2023/07/16 00:28:03;;;;;;;11.70;8.83;;;;;;;;;;5068321;28;20041;-69
2023/07/16 00:30:28;;;;;;;10.27;7.03;;;;;;;;;;5034560;28;20533;-68
2023/07/16 00:32:54;;;;;;;9.47;8.10;;;;;;;;;;5044891;28;20095;-66
2023/07/16 00:35:19;;;;;;;12.77;8.52;;;;;;;;;;5069049;28;20045;-66
2023/07/16 00:37:45;;;;;;;10.77;7.20;;;;;;;;;;5068539;28;20592;-66
2023/07/16 00:40:10;;;;;;;10.07;6.35;;;;;;;;;;5070144;28;20020;-66
2023/07/16 00:42:35;;;;;;;9.00;7.35;;;;;;;;;;5070892;28;20119;-66
2023/07/16 00:45:01;;;;;;;14.85;8.52;;;;;;;;;;5074051;28;20017;-66
2023/07/16 00:47:26;;;;;;;12.18;7.28;;;;;;;;;;5072582;28;20024;-66
2023/07/16 00:49:51;;;;;;;8.80;6.53;;;;;;;;;;5064554;28;20056;-66
2023/07/16 00:52:18;;;;;;;10.30;6.97;;;;;;;;;;5051858;28;20048;-66
2023/07/16 00:54:43;;;;;;;8.30;7.50;;;;;;;;;;5053653;28;20017;-66
2023/07/16 00:57:09;;;;;;;8.00;6.25;;;;;;;;;;5057136;28;20033;-67
2023/07/16 00:59:34;;;;;;;12.07;7.33;;;;;;;;;;5073460;28;20017;-66
2023/07/16 01:01:59;;;;;;;9.03;6.80;;;;;;;;;;5070808;28;20120;-65
2023/07/16 01:04:24;;;;;;;9.53;6.07;;;;;;;;;;5072409;28;20182;-68
2023/07/16 01:06:52;;;;;;;7.07;5.80;;;;;;;;;;5051507;28;20091;-67
2023/07/16 01:09:18;;;;;;;10.77;7.15;;;;;;;;;;5053667;28;20430;-67
2023/07/16 01:11:43;;;;;;;11.93;6.80;;;;;;;;;;5057975;28;20617;-66
2023/07/16 01:14:09;;;;;;;10.50;5.80;;;;;;;;;;5072692;28;20028;-67
2023/07/16 01:16:35;;;;;;;10.30;6.55;;;;;;;;;;5072056;28;20028;-67
2023/07/16 01:19:00;;;;;;;19.10;7.22;;;;;;;;;;5073474;28;20024;-67
2023/07/16 01:21:29;;;;;;;11.47;6.33;;;;;;;;;;5071205;28;20025;-67
2023/07/16 01:24:10;;;;;;;10.98;7.32;;;;;;;;;;5073348;28;20020;-67
2023/07/16 01:26:46;;;;;;;18.17;7.40;;;;;;;;;;5071516;28;20033;-67
2023/07/16 01:29:11;;;;;;;12.82;8.38;;;;;;;;;;5072748;28;20027;-67
2023/07/16 01:31:37;;;;;;;8.70;6.00;;;;;;;;;;5071708;28;20112;-67
2023/07/16 01:34:04;;;;;;;10.57;6.60;;;;;;;;;;5064289;28;20051;-67
2023/07/16 01:36:30;;;;;;;8.07;6.43;;;;;;;;;;5056491;28;20090;-66
2023/07/16 01:38:56;;;;;;;13.02;6.88;;;;;;;;;;5072916;28;20028;-67
2023/07/16 01:41:21;;;;;;;9.80;6.68;;;;;;;;;;5071658;28;20396;-66
2023/07/16 01:43:46;;;;;;;8.40;5.93;;;;;;;;;;5072740;28;20054;-70
2023/07/16 01:46:11;;;;;;;8.70;6.33;;;;;;;;;;5066317;28;20432;-69
2023/07/16 01:48:37;;;;;;;11.43;5.80;;;;;;;;;;5068041;28;20438;-70
2023/07/16 01:51:03;;;;;;;9.07;7.00;;;;;;;;;;5070634;28;20108;-70
2023/07/16 01:53:28;;;;;;;8.55;5.28;;;;;;;;;;5072219;28;20078;-70
2023/07/16 01:55:53;;;;;;;11.57;6.00;;;;;;;;;;5072750;28;20395;-69
2023/07/16 01:58:18;;;;;;;7.80;5.60;;;;;;;;;;5070540;28;20052;-69
2023/07/16 02:00:43;;;;;;;7.68;6.32;;;;;;;;;;5072226;28;20453;-69
2023/07/16 02:03:09;;;;;;;12.63;5.57;;;;;;;;;;5070457;28;20048;-69
2023/07/16 02:05:34;;;;;;;9.63;5.97;;;;;;;;;;5072387;28;20031;-70
2023/07/16 02:07:59;;;;;;;9.13;5.47;;;;;;;;;;5070557;28;20138;-69
2023/07/16 02:10:25;;;;;;;13.30;7.23;;;;;;;;;;5072464;28;20099;-71
2023/07/16 02:12:50;;;;;;;7.68;5.07;;;;;;;;;;5070506;28;20036;-69
2023/07/16 02:15:15;;;;;;;11.70;6.95;;;;;;;;;;5072094;28;20995;-69
2023/07/16 02:17:40;;;;;;;8.18;4.75;;;;;;;;;;5070871;28;20039;-70
2023/07/16 02:20:06;;;;;;;7.07;5.57;;;;;;;;;;5041070;28;20047;-70
2023/07/16 02:22:31;;;;;;;8.65;5.10;;;;;;;;;;5043434;28;20047;-70
2023/07/16 02:24:56;;;;;;;7.50;4.50;;;;;;;;;;5057294;28;20036;-69
2023/07/16 02:27:21;;;;;;;5.40;4.33;;;;;;;;;;5070450;28;20041;-71
2023/07/16 02:29:47;;;;;;;4.00;3.57;;;;;;;;;;5072188;28;20020;-71
2023/07/16 02:32:12;;;;;;;8.10;4.10;;;;;;;;;;5070136;28;20043;-71
2023/07/16 02:34:37;;;;;;;6.13;4.80;;;;;;;;;;5058433;28;20548;-71
2023/07/16 02:37:03;;;;;;;12.37;5.70;;;;;;;;;;5048724;28;20045;-71
2023/07/16 02:39:28;;;;;;;6.10;3.90;;;;;;;;;;5051706;28;20063;-71
2023/07/16 02:41:53;;;;;;;7.45;5.18;;;;;;;;;;5050070;28;20033;-71
2023/07/16 02:44:18;;;;;;;6.32;4.32;;;;;;;;;;5051748;28;20381;-70
2023/07/16 02:46:44;;;;;;;13.80;4.43;;;;;;;;;;5050341;28;20099;-68
2023/07/16 02:49:09;;;;;;;7.88;3.88;;;;;;;;;;5061477;28;20445;-70
2023/07/16 02:51:34;;;;;;;8.57;4.63;;;;;;;;;;5055914;28;20390;-68
2023/07/16 02:53:59;;;;;;;8.70;5.00;;;;;;;;;;5071285;28;20012;-67
2023/07/16 02:56:24;;;;;;;9.05;4.90;;;;;;;;;;5069507;28;20443;-67
2023/07/16 02:58:49;;;;;;;12.68;3.78;;;;;;;;;;5071576;28;20023;-69
2023/07/16 03:01:15;;;;;;;6.33;3.53;;;;;;;;;;5069847;28;20623;-66
2023/07/16 03:03:40;;;;;;;4.07;3.43;;;;;;;;;;5054854;28;20056;-67
2023/07/16 03:06:06;;;;;;;6.93;4.60;;;;;;;;;;5049684;28;20025;-66
2023/07/16 03:08:32;;;;;;;9.07;4.10;;;;;;;;;;5071079;28;20391;-67
2023/07/16 03:10:57;;;;;;;14.80;4.57;;;;;;;;;;5070799;28;20115;-66
2023/07/16 03:13:23;;;;;;;12.30;5.70;;;;;;;;;;5069970;28;20437;-66
2023/07/16 03:15:48;;;;;;;10.32;3.80;;;;;;;;;;5071100;28;20385;-67
2023/07/16 03:18:13;;;;;;;17.97;5.90;;;;;;;;;;5064996;28;20547;-66
2023/07/16 03:20:38;;;;;;;7.47;3.87;;;;;;;;;;5051488;28;20040;-67
2023/07/16 03:23:03;;;;;;;13.87;5.83;;;;;;;;;;5047269;28;20492;-67
2023/07/16 03:25:28;;;;;;;8.63;4.27;;;;;;;;;;5050865;28;20024;-67
2023/07/16 03:27:54;;;;;;;6.18;4.10;;;;;;;;;;5049281;28;20443;-67
2023/07/16 03:30:19;;;;;;;7.47;4.93;;;;;;;;;;5050803;28;20013;-67
2023/07/16 03:32:44;;;;;;;8.82;6.10;;;;;;;;;;5049092;28;20037;-67
2023/07/16 03:35:09;;;;;;;7.53;4.22;;;;;;;;;;5050465;28;20044;-67
2023/07/16 03:37:34;;;;;;;12.85;5.43;;;;;;;;;;5064542;28;20066;-66
2023/07/16 03:40:12;;;;;;;10.18;4.18;;;;;;;;;;5070619;28;20035;-67
2023/07/16 03:42:37;;;;;;;6.47;3.25;;;;;;;;;;5069569;28;20036;-67
2023/07/16 03:45:02;;;;;;;6.05;3.65;;;;;;;;;;5068899;28;20033;-67
2023/07/16 03:47:27;;;;;;;5.80;3.67;;;;;;;;;;5069258;28;20032;-66
2023/07/16 03:49:52;;;;;;;6.80;4.03;;;;;;;;;;5067073;28;20023;-67
2023/07/16 03:52:17;;;;;;;7.28;4.93;;;;;;;;;;5049296;28;20037;-67
2023/07/16 03:54:42;;;;;;;11.47;4.97;;;;;;;;;;5050820;28;20025;-67
2023/07/16 03:57:08;;;;;;;6.82;3.55;;;;;;;;;;5048714;28;20116;-67
2023/07/16 03:59:33;;;;;;;6.83;3.77;;;;;;;;;;5050818;28;20075;-66
2023/07/16 04:01:58;;;;;;;7.43;3.87;;;;;;;;;;5049009;28;20084;-66
2023/07/16 04:04:23;;;;;;;8.05;4.18;;;;;;;;;;5050266;28;20851;-67
2023/07/16 04:06:48;;;;;;;8.90;4.13;;;;;;;;;;5054296;28;20029;-66
2023/07/16 04:09:13;;;;;;;8.27;4.33;;;;;;;;;;5057350;28;20100;-66
2023/07/16 04:11:39;;;;;;;9.52;4.72;;;;;;;;;;5048654;28;20033;-65
2023/07/16 04:14:04;;;;;;;12.03;4.27;;;;;;;;;;5048880;28;20476;-67
2023/07/16 04:16:29;;;;;;;9.17;4.17;;;;;;;;;;5049417;28;20029;-67
2023/07/16 04:18:54;;;;;;;6.70;5.18;;;;;;;;;;5053373;28;20053;-66
2023/07/16 04:21:19;;;;;;;8.70;4.63;;;;;;;;;;5055556;28;20677;-66
2023/07/16 04:23:44;;;;;;;8.43;5.47;;;;;;;;;;5074479;28;20163;-66
2023/07/16 04:26:09;;;;;;;5.20;3.75;;;;;;;;;;5059594;28;20498;-66
2023/07/16 04:28:34;;;;;;;8.02;3.70;;;;;;;;;;5074343;28;20016;-66
2023/07/16 04:31:00;;;;;;;9.25;5.07;;;;;;;;;;5069617;28;20029;-66
2023/07/16 04:33:25;;;;;;;9.77;3.63;;;;;;;;;;5071419;28;20044;-66
2023/07/16 04:35:50;;;;;;;6.33;4.23;;;;;;;;;;5072260;28;20169;-66
2023/07/16 04:38:15;;;;;;;7.80;3.60;;;;;;;;;;5053789;28;20052;-66
2023/07/16 04:40:41;;;;;;;9.43;4.03;;;;;;;;;;5056193;28;20102;-66
2023/07/16 04:43:06;;;;;;;9.23;5.65;;;;;;;;;;5051070;28;20044;-66
2023/07/16 04:45:31;;;;;;;7.43;4.30;;;;;;;;;;5053261;28;20471;-66
2023/07/16 04:47:57;;;;;;;4.93;3.17;;;;;;;;;;5047434;28;20029;-66
2023/07/16 04:50:22;;;;;;;8.90;4.15;;;;;;;;;;5067145;28;20021;-65
2023/07/16 04:52:47;;;;;;;10.07;5.77;;;;;;;;;;5072060;28;20033;-66
2023/07/16 04:55:13;;;;;;;7.20;4.43;;;;;;;;;;5071729;28;20020;-67
2023/07/16 04:57:38;;;;;;;8.27;3.55;;;;;;;;;;5071267;28;20424;-67
2023/07/16 05:00:05;;;;;;;7.27;3.60;;;;;;;;;;5062384;28;20028;-66
2023/07/16 05:02:31;;;;;;;10.43;4.20;;;;;;;;;;5070145;28;20069;-66
2023/07/16 05:04:56;;;;;;;10.40;5.77;;;;;;;;;;5072729;28;20059;-68
2023/07/16 05:07:21;;;;;;;8.03;4.20;;;;;;;;;;5071560;28;20055;-66
2023/07/16 05:09:46;;;;;;;7.80;3.80;;;;;;;;;;5070297;28;20031;-67
2023/07/16 05:12:11;;;;;;;12.20;5.93;;;;;;;;;;5069846;28;20463;-67
2023/07/16 05:14:43;;;;;;;9.80;4.00;;;;;;;;;;5071551;28;20048;-67
2023/07/16 05:17:08;;;;;;;7.75;4.97;;;;;;;;;;5067410;28;20508;-67
2023/07/16 05:19:34;;;;;;;10.30;4.60;;;;;;;;;;5059180;28;20013;-68
2023/07/16 05:21:59;;;;;;;14.52;3.88;;;;;;;;;;5063922;28;20468;-67
2023/07/16 05:24:24;;;;;;;6.63;3.50;;;;;;;;;;5062200;28;20045;-67
2023/07/16 05:26:50;;;;;;;15.80;5.22;;;;;;;;;;5068719;28;20040;-67
2023/07/16 05:29:15;;;;;;;14.02;4.30;;;;;;;;;;5071536;28;20025;-68
2023/07/16 05:31:42;;;;;;;14.35;5.75;;;;;;;;;;5069580;28;20545;-65
2023/07/16 05:34:07;;;;;;;5.22;3.97;;;;;;;;;;5072689;28;20016;-66
2023/07/16 05:36:32;;;;;;;11.30;3.97;;;;;;;;;;5068881;28;20530;-66
2023/07/16 05:38:57;;;;;;;9.52;4.22;;;;;;;;;;5071126;28;20765;-66
2023/07/16 05:41:23;;;;;;;4.53;3.97;;;;;;;;;;5070607;28;20055;-65
2023/07/16 05:43:48;;;;;;;10.73;4.72;;;;;;;;;;5071771;28;20458;-67
2023/07/16 05:46:13;;;;;;;6.47;4.25;;;;;;;;;;5069550;28;20019;-66
2023/07/16 05:48:38;;;;;;;10.70;6.18;;;;;;;;;;5072249;28;20417;-67
2023/07/16 05:51:03;;;;;;;11.82;5.78;;;;;;;;;;5070778;28;20028;-65
2023/07/16 05:53:28;;;;;;;17.50;6.28;;;;;;;;;;5070326;28;20021;-65
2023/07/16 05:55:53;;;;;;;20.70;8.80;;;;;;;;;;5072063;28;20572;-66
2023/07/16 05:58:19;;;;;;;7.75;4.80;;;;;;;;;;5070654;28;20037;-66
2023/07/16 06:00:44;;;;;;;8.47;6.03;;;;;;;;;;5071158;28;20020;-67
2023/07/16 06:03:09;;;;;;;7.65;4.53;;;;;;;;;;5070001;28;20043;-66
2023/07/16 06:05:36;;;;;;;8.00;5.43;;;;;;;;;;5071514;28;20016;-66
2023/07/16 06:08:01;;;;;;;9.40;5.63;;;;;;;;;;5068742;28;20029;-66
2023/07/16 06:10:27;;;;;;;11.70;5.07;;;;;;;;;;5071126;28;20169;-66
2023/07/16 06:12:52;;;;;;;9.98;4.78;;;;;;;;;;5070313;28;20032;-66
2023/07/16 06:15:17;;;;;;;7.13;4.75;;;;;;;;;;5070672;28;20025;-66
2023/07/16 06:17:42;;;;;;;10.07;5.43;;;;;;;;;;5069298;28;20123;-66
2023/07/16 06:20:08;;;;;;;15.13;5.82;;;;;;;;;;5071584;28;20021;-67
2023/07/16 06:22:33;;;;;;;11.73;5.63;;;;;;;;;;5069124;28;20495;-66
2023/07/16 06:24:59;;;;;;;10.48;5.43;;;;;;;;;;5069999;28;20436;-67
2023/07/16 06:27:24;;;;;;;9.18;5.20;;;;;;;;;;5068555;28;20047;-66
2023/07/16 06:29:49;;;;;;;18.67;7.28;;;;;;;;;;5070358;28;20035;-66
2023/07/16 06:32:14;;;;;;;7.67;5.43;;;;;;;;;;5069082;28;20040;-67
2023/07/16 06:34:40;;;;;;;14.40;6.30;;;;;;;;;;5071220;28;20016;-67
2023/07/16 06:37:05;;;;;;;10.90;4.57;;;;;;;;;;5068828;28;20106;-67
2023/07/16 06:39:31;;;;;;;18.45;6.60;;;;;;;;;;5070034;28;20112;-66
2023/07/16 06:41:56;;;;;;;10.57;4.85;;;;;;;;;;5070172;28;20027;-63
2023/07/16 06:44:23;;;;;;;7.97;4.82;;;;;;;;;;5070129;28;20495;-67
2023/07/16 06:46:48;;;;;;;16.75;6.70;;;;;;;;;;5070864;28;20019;-66
2023/07/16 06:49:13;;;;;;;19.60;5.07;;;;;;;;;;5069420;28;20028;-67
2023/07/16 06:51:39;;;;;;;32.23;7.73;;;;;;;;;;5070522;28;20418;-67
2023/07/16 06:54:04;;;;;;;21.40;7.20;;;;;;;;;;5068579;28;20058;-67
2023/07/16 06:56:29;;;;;;;12.53;5.53;;;;;;;;;;5071012;28;20012;-67
2023/07/16 06:58:54;;;;;;;10.45;5.57;;;;;;;;;;5069502;28;20037;-67
2023/07/16 07:01:19;;;;;;;13.40;5.28;;;;;;;;;;5069420;28;20024;-67
2023/07/16 07:03:44;;;;;;;10.00;4.80;;;;;;;;;;5069521;28;20063;-66
2023/07/16 07:06:10;;;;;;;12.70;5.88;;;;;;;;;;5070450;28;20024;-67
2023/07/16 07:08:36;;;;;;;27.83;7.65;;;;;;;;;;5068187;28;20596;-67
2023/07/16 07:11:01;;;;;;;18.77;5.50;;;;;;;;;;5068258;28;20112;-67
2023/07/16 07:13:26;;;;;;;7.37;4.93;;;;;;;;;;5067772;28;20064;-67
2023/07/16 07:15:51;;;;;;;7.20;4.60;;;;;;;;;;5061210;28;20034;-67
2023/07/16 07:18:16;;;;;;;17.40;6.25;;;;;;;;;;5061069;28;20028;-68
2023/07/16 07:20:42;;;;;;;13.03;7.40;;;;;;;;;;5070404;28;20028;-67
2023/07/16 07:23:07;;;;;;;11.30;5.00;;;;;;;;;;5064104;28;20048;-66
2023/07/16 07:25:32;;;;;;;9.57;5.78;;;;;;;;;;5070190;28;20020;-67
2023/07/16 07:27:57;;;;;;;35.83;9.67;;;;;;;;;;5068303;28;20037;-66
2023/07/16 07:30:22;;;;;;;10.33;4.77;;;;;;;;;;5067774;28;20472;-66
2023/07/16 07:32:48;;;;;;;7.67;4.60;;;;;;;;;;5069085;28;20834;-67
2023/07/16 07:35:13;;;;;;;15.68;5.85;;;;;;;;;;5070365;28;20048;-67
2023/07/16 07:37:38;;;;;;;11.60;5.10;;;;;;;;;;5067964;28;20124;-67
2023/07/16 07:40:04;;;;;;;13.35;5.97;;;;;;;;;;5070079;28;20051;-66
2023/07/16 07:42:29;;;;;;;10.48;4.93;;;;;;;;;;5068445;28;20037;-67
2023/07/16 07:44:54;;;;;;;14.25;5.78;;;;;;;;;;5067586;28;20013;-66
2023/07/16 07:47:19;;;;;;;10.03;5.67;;;;;;;;;;5053354;28;20033;-67
2023/07/16 07:49:45;;;;;;;8.00;5.10;;;;;;;;;;5050383;28;20032;-68
2023/07/16 07:52:10;;;;;;;8.05;4.43;;;;;;;;;;5054760;28;20474;-68
2023/07/16 07:54:35;;;;;;;7.25;4.03;;;;;;;;;;5070331;28;20028;-67
2023/07/16 07:57:03;;;;;;;11.83;5.70;;;;;;;;;;5067749;28;20056;-68
2023/07/16 07:59:28;;;;;;;10.13;5.72;;;;;;;;;;5069062;28;20055;-67
2023/07/16 08:01:53;;;;;;;10.10;5.27;;;;;;;;;;5068715;28;20079;-67
2023/07/16 08:04:18;;;;;;;8.43;5.03;;;;;;;;;;5063449;28;20467;-67
2023/07/16 08:06:43;;;;;;;16.80;6.20;;;;;;;;;;5065371;28;20032;-67
2023/07/16 08:09:09;;;;;;;6.85;4.75;;;;;;;;;;5068588;28;20107;-67
2023/07/16 08:11:34;;;;;;;13.97;5.53;;;;;;;;;;5068170;28;20039;-67
2023/07/16 08:13:59;;;;;;;17.40;5.30;;;;;;;;;;5068260;28;20052;-67
2023/07/16 08:16:24;;;;;;;16.93;6.00;;;;;;;;;;5067365;28;20016;-68
2023/07/16 08:18:50;;;;;;;9.50;5.40;;;;;;;;;;5065987;28;20021;-67
2023/07/16 08:21:19;;;;;;;14.45;5.47;;;;;;;;;;5061206;28;20564;-67
2023/07/16 08:23:45;;;;;;;10.77;5.43;;;;;;;;;;5069943;28;20090;-67
2023/07/16 08:26:12;;;;;;;17.23;4.90;;;;;;;;;;5068454;28;20063;-67
2023/07/16 08:28:37;;;;;;;7.03;4.30;;;;;;;;;;5069646;28;20017;-68
2023/07/16 08:31:03;;;;;;;12.97;5.20;;;;;;;;;;5069020;28;20376;-67
2023/07/16 08:33:28;;;;;;;7.50;4.77;;;;;;;;;;5068192;28;20040;-67
2023/07/16 08:35:53;;;;;;;13.13;5.77;;;;;;;;;;5064584;28;20550;-66
2023/07/16 08:38:18;;;;;;;9.73;4.47;;;;;;;;;;5061907;28;20561;-67
2023/07/16 08:40:46;;;;;;;13.65;4.90;;;;;;;;;;5069783;28;20030;-67
2023/07/16 08:43:12;;;;;;;22.05;5.00;;;;;;;;;;5068219;28;20040;-66
2023/07/16 08:45:42;;;;;;;12.63;5.53;;;;;;;;;;5069581;28;20035;-68
2023/07/16 08:48:07;;;;;;;13.05;4.97;;;;;;;;;;5068262;28;20036;-67
2023/07/16 08:50:33;;;;;;;7.40;4.75;;;;;;;;;;5062978;28;20067;-68
2023/07/16 08:52:59;;;;;;;12.07;4.68;;;;;;;;;;5047669;28;20033;-67
2023/07/16 08:55:24;;;;;;;9.75;5.53;;;;;;;;;;5049992;28;20017;-67
2023/07/16 08:57:49;;;;;;;15.80;5.10;;;;;;;;;;5048483;28;20033;-68
2023/07/16 09:00:15;;;;;;;10.97;4.53;;;;;;;;;;5048447;28;20720;-67
2023/07/16 09:02:40;;;;;;;10.40;5.25;;;;;;;;;;5069468;28;20044;-67
2023/07/16 09:05:07;;;;;;;10.43;4.93;;;;;;;;;;5073541;28;20028;-67
2023/07/16 09:07:32;;;;;;;10.13;5.05;;;;;;;;;;5071297;28;20032;-67
2023/07/16 09:09:58;;;;;;;6.53;4.50;;;;;;;;;;5058304;28;20044;-67
2023/07/16 09:12:24;;;;;;;11.27;5.50;;;;;;;;;;5050567;28;20056;-67
2023/07/16 09:14:49;;;;;;;11.75;4.43;;;;;;;;;;5052967;28;20072;-67
2023/07/16 09:17:19;;;;;;;10.20;4.45;;;;;;;;;;5064185;28;20567;-67
2023/07/16 09:19:45;;;;;;;13.07;5.40;;;;;;;;;;5032960;28;20574;-67
2023/07/16 09:22:10;;;;;;;7.28;4.55;;;;;;;;;;5033639;28;20026;-67
2023/07/16 09:24:36;;;;;;;8.10;4.20;;;;;;;;;;5051716;28;20163;-67
2023/07/16 09:27:01;;;;;;;10.07;5.10;;;;;;;;;;5065470;28;20016;-68
2023/07/16 09:29:27;;;;;;;9.98;5.28;;;;;;;;;;5072223;28;20161;-68
2023/07/16 09:31:58;;;;;;;14.40;6.88;;;;;;;;;;5072104;28;20020;-67
2023/07/16 09:34:23;;;;;;;6.88;4.28;;;;;;;;;;5071238;28;20116;-67
2023/07/16 09:36:49;;;;;;;6.63;4.05;;;;;;;;;;5071874;28;20127;-67
2023/07/16 09:39:17;;;;;;;15.63;5.40;;;;;;;;;;5071028;28;20040;-68
2023/07/16 09:41:42;;;;;;;8.05;4.40;;;;;;;;;;5072724;28;20028;-67
2023/07/16 09:44:08;;;;;;;10.98;4.65;;;;;;;;;;5069260;28;20048;-67
2023/07/16 09:46:33;;;;;;;8.82;3.88;;;;;;;;;;5073040;28;20370;-67
2023/07/16 09:48:58;;;;;;;10.43;5.57;;;;;;;;;;5070508;28;20394;-68
2023/07/16 09:51:23;;;;;;;7.63;4.43;;;;;;;;;;5072409;28;20024;-67
2023/07/16 09:53:50;;;;;;;11.52;4.65;;;;;;;;;;5071038;28;20040;-67
2023/07/16 09:56:15;;;;;;;7.07;4.35;;;;;;;;;;5072285;28;20142;-67
2023/07/16 09:58:41;;;;;;;11.48;4.40;;;;;;;;;;5060408;28;20079;-68
2023/07/16 10:01:06;;;;;;;6.97;4.05;;;;;;;;;;5052180;28;20464;-66
2023/07/16 10:03:32;;;;;;;8.32;3.80;;;;;;;;;;5050723;28;20495;-65
2023/07/16 10:06:06;;;;;;;6.17;5.17;;;;;;;;;;5051440;28;20028;-68
2023/07/16 10:08:37;;;;;;;10.05;5.07;;;;;;;;;;5050480;28;20095;-68
2023/07/16 10:11:02;;;;;;;9.73;4.53;;;;;;;;;;5051978;28;20039;-66
2023/07/16 10:13:27;;;;;;;8.98;4.28;;;;;;;;;;5050000;28;20105;-67
2023/07/16 10:15:53;;;;;;;6.68;4.65;;;;;;;;;;5051565;28;20017;-67
2023/07/16 10:18:39;;;;;;;11.95;4.70;;;;;;;;;;5068039;28;20569;-67
2023/07/16 10:21:06;;;;;;;14.98;4.68;;;;;;;;;;5067724;28;20041;-68
2023/07/16 10:23:39;;;;;;;12.48;3.60;;;;;;;;;;5063435;28;20420;-67
2023/07/16 10:26:06;;;;;;;7.55;4.13;;;;;;;;;;5055740;28;20040;-67
2023/07/16 10:28:31;;;;;;;5.45;3.90;;;;;;;;;;5068344;28;20040;-67
2023/07/16 10:30:56;;;;;;;8.43;4.80;;;;;;;;;;5071243;28;20383;-66
2023/07/16 10:33:21;;;;;;;8.13;4.00;;;;;;;;;;5070079;28;20402;-66
2023/07/16 10:35:47;;;;;;;9.45;4.18;;;;;;;;;;5053766;28;21174;-67
2023/07/16 10:38:12;;;;;;;8.95;5.28;;;;;;;;;;5068220;28;20086;-67
2023/07/16 10:40:41;;;;;;;14.57;4.80;;;;;;;;;;5071158;28;20056;-67
2023/07/16 10:43:06;;;;;;;8.43;3.90;;;;;;;;;;5069127;28;20041;-67
2023/07/16 10:45:32;;;;;;;12.83;5.37;;;;;;;;;;5070905;28;20017;-67
2023/07/16 10:47:57;;;;;;;9.82;3.60;;;;;;;;;;5057241;28;20534;-67
2023/07/16 10:50:22;;;;;;;9.02;4.50;;;;;;;;;;5051332;28;20017;-68
2023/07/16 10:52:50;;;;;;;11.60;6.03;;;;;;;;;;5049854;28;20037;-67
2023/07/16 10:55:15;;;;;;;9.52;3.53;;;;;;;;;;5056823;28;20028;-67
2023/07/16 10:57:40;;;;;;;10.97;4.20;;;;;;;;;;5056888;28;20047;-67
2023/07/16 11:00:10;;;;;;;11.27;4.83;;;;;;;;;;5051075;28;20090;-67
2023/07/16 11:02:40;;;;;;;10.98;4.32;;;;;;;;;;5063001;28;20127;-67
2023/07/16 11:05:05;;;;;;;6.95;4.47;;;;;;;;;;5069361;28;20161;-68
2023/07/16 11:07:30;;;;;;;9.77;4.72;;;;;;;;;;5069600;28;20404;-67
2023/07/16 11:09:55;;;;;;;7.17;3.93;;;;;;;;;;5070668;28;20099;-68
2023/07/16 11:12:21;;;;;;;9.18;4.32;;;;;;;;;;5068948;28;20036;-67
2023/07/16 11:14:48;;;;;;;9.38;4.65;;;;;;;;;;5071016;28;20025;-67
2023/07/16 11:17:13;;;;;;;8.43;4.50;;;;;;;;;;5069067;28;20061;-67
2023/07/16 11:19:39;;;;;;;10.85;4.40;;;;;;;;;;5053030;28;20516;-67
2023/07/16 11:22:05;;;;;;;7.10;3.20;;;;;;;;;;5056757;28;20037;-67
2023/07/16 11:24:40;;;;;;;8.25;4.00;;;;;;;;;;5069524;28;20054;-67
2023/07/16 11:27:06;;;;;;;10.70;4.63;;;;;;;;;;5050108;28;20025;-68
2023/07/16 11:29:35;;;;;;;5.70;3.80;;;;;;;;;;5070368;28;20024;-68
2023/07/16 11:32:01;;;;;;;14.07;4.82;;;;;;;;;;5055202;28;20532;-67
2023/07/16 11:34:26;;;;;;;8.80;3.97;;;;;;;;;;5033169;28;20043;-67
2023/07/16 11:36:51;;;;;;;9.05;4.80;;;;;;;;;;5042982;28;20119;-67
2023/07/16 11:39:16;;;;;;;17.17;4.13;;;;;;;;;;5070500;28;20020;-67
2023/07/16 11:41:41;;;;;;;17.50;4.23;;;;;;;;;;5068207;28;20047;-67
2023/07/16 11:44:07;;;;;;;10.00;6.27;;;;;;;;;;5070492;28;20024;-67
2023/07/16 11:46:33;;;;;;;5.22;3.58;;;;;;;;;;5068980;28;20435;-66
2023/07/16 11:48:59;;;;;;;8.80;3.33;;;;;;;;;;5069986;28;20027;-67
2023/07/16 11:51:24;;;;;;;5.50;3.80;;;;;;;;;;5069398;28;20492;-66
2023/07/16 11:53:49;;;;;;;6.20;4.00;;;;;;;;;;5070357;28;20436;-67
2023/07/16 11:56:14;;;;;;;8.23;3.53;;;;;;;;;;5068439;28;20089;-67
2023/07/16 11:58:40;;;;;;;10.33;4.10;;;;;;;;;;5070847;28;20031;-67
2023/07/16 12:01:05;;;;;;;5.18;3.85;;;;;;;;;;5068352;28;20105;-66
2023/07/16 12:03:31;;;;;;;6.70;3.60;;;;;;;;;;5069958;28;20021;-67
2023/07/16 12:05:56;;;;;;;8.73;4.63;;;;;;;;;;5070241;28;20494;-66
2023/07/16 12:08:21;;;;;;;6.33;3.47;;;;;;;;;;5068855;28;20490;-66
2023/07/16 12:10:46;;;;;;;7.00;4.65;;;;;;;;;;5068679;28;20016;-66
2023/07/16 12:13:12;;;;;;;14.50;4.82;;;;;;;;;;5068527;28;20496;-66
2023/07/16 12:15:37;;;;;;;5.33;4.40;;;;;;;;;;5070141;28;20024;-66
2023/07/16 12:18:03;;;;;;;7.30;3.70;;;;;;;;;;5068458;28;20450;-66
2023/07/16 12:20:28;;;;;;;3.60;2.97;;;;;;;;;;5070483;28;20432;-67
2023/07/16 12:22:53;;;;;;;5.53;3.70;;;;;;;;;;5069102;28;20129;-66
2023/07/16 12:25:18;;;;;;;4.07;3.17;;;;;;;;;;5070390;28;20414;-66
2023/07/16 12:27:43;;;;;;;5.35;3.55;;;;;;;;;;5068424;28;20368;-66
2023/07/16 12:30:09;;;;;;;5.37;3.47;;;;;;;;;;5069967;28;20052;-68
2023/07/16 12:32:34;;;;;;;10.65;6.10;;;;;;;;;;5067675;28;20040;-65
2023/07/16 12:35:00;;;;;;;6.33;4.03;;;;;;;;;;5069733;28;20025;-66
2023/07/16 12:37:25;;;;;;;9.05;3.70;;;;;;;;;;5069839;28;20044;-66
2023/07/16 12:39:50;;;;;;;7.45;3.80;;;;;;;;;;5057663;28;20040;-66
2023/07/16 12:42:16;;;;;;;4.33;2.67;;;;;;;;;;5072284;28;20125;-66
2023/07/16 12:44:41;;;;;;;5.90;3.83;;;;;;;;;;5068397;28;20013;-66
2023/07/16 12:47:08;;;;;;;10.13;4.20;;;;;;;;;;5052428;28;20581;-66
2023/07/16 12:49:33;;;;;;;3.95;2.63;;;;;;;;;;5061102;28;20028;-66
2023/07/16 12:51:58;;;;;;;3.90;2.77;;;;;;;;;;5072551;28;20052;-66
2023/07/16 12:54:23;;;;;;;11.13;3.25;;;;;;;;;;5073892;28;20514;-66
2023/07/16 12:56:48;;;;;;;6.78;2.95;;;;;;;;;;5071583;28;20495;-66
2023/07/16 12:59:14;;;;;;;5.38;2.25;;;;;;;;;;5073758;28;20016;-66
2023/07/16 13:01:39;;;;;;;8.82;4.55;;;;;;;;;;5072426;28;20036;-66
2023/07/16 13:04:04;;;;;;;6.28;2.53;;;;;;;;;;5073211;28;20475;-66
2023/07/16 13:06:29;;;;;;;6.63;3.63;;;;;;;;;;5072154;28;20056;-67
2023/07/16 13:08:54;;;;;;;3.63;2.87;;;;;;;;;;5073439;28;20020;-66
2023/07/16 13:11:19;;;;;;;8.15;3.58;;;;;;;;;;5071374;28;20444;-67
2023/07/16 13:13:45;;;;;;;4.93;3.20;;;;;;;;;;5073493;28;20020;-66
2023/07/16 13:16:10;;;;;;;10.23;3.55;;;;;;;;;;5054523;28;20470;-66
2023/07/16 13:18:35;;;;;;;4.47;3.23;;;;;;;;;;5053197;28;20025;-67
2023/07/16 13:21:00;;;;;;;5.50;3.33;;;;;;;;;;5051897;28;20021;-65
2023/07/16 13:23:25;;;;;;;11.77;5.18;;;;;;;;;;5055813;28;20060;-66
2023/07/16 13:25:52;;;;;;;5.35;3.38;;;;;;;;;;5073103;28;20020;-66
2023/07/16 13:28:17;;;;;;;8.95;3.83;;;;;;;;;;5071570;28;20116;-65
2023/07/16 13:30:42;;;;;;;9.70;3.47;;;;;;;;;;5073462;28;20442;-67
2023/07/16 13:33:07;;;;;;;6.43;4.17;;;;;;;;;;5071414;28;20090;-67
2023/07/16 13:35:33;;;;;;;7.07;4.22;;;;;;;;;;5073189;28;20048;-66
2023/07/16 13:37:58;;;;;;;5.13;3.33;;;;;;;;;;5065217;28;20032;-67
2023/07/16 13:40:23;;;;;;;5.75;3.25;;;;;;;;;;5052915;28;20117;-66
2023/07/16 13:42:48;;;;;;;6.30;3.93;;;;;;;;;;5051587;28;20380;-67
2023/07/16 13:45:14;;;;;;;5.17;3.17;;;;;;;;;;5061959;28;20055;-67
2023/07/16 13:47:39;;;;;;;5.57;3.45;;;;;;;;;;5071365;28;20036;-66
2023/07/16 13:50:04;;;;;;;9.93;4.03;;;;;;;;;;5068021;28;20032;-65
2023/07/16 13:52:29;;;;;;;6.30;3.92;;;;;;;;;;5050259;28;20449;-66
2023/07/16 13:54:54;;;;;;;5.17;3.47;;;;;;;;;;5052757;28;20064;-66
2023/07/16 13:57:20;;;;;;;5.10;3.13;;;;;;;;;;5051244;28;20521;-67
2023/07/16 13:59:45;;;;;;;5.03;3.23;;;;;;;;;;5053054;28;20024;-66
2023/07/16 14:02:10;;;;;;;4.85;3.17;;;;;;;;;;5050543;28;20033;-66
2023/07/16 14:04:35;;;;;;;4.20;3.13;;;;;;;;;;5053008;28;20032;-66
2023/07/16 14:07:00;;;;;;;5.35;4.10;;;;;;;;;;5051162;28;20495;-66
2023/07/16 14:09:25;;;;;;;7.22;2.90;;;;;;;;;;5052132;28;20024;-66
2023/07/16 14:11:51;;;;;;;3.67;2.47;;;;;;;;;;5052247;28;20037;-66
2023/07/16 14:14:16;;;;;;;8.37;4.00;;;;;;;;;;5053398;28;20029;-66
2023/07/16 14:16:43;;;;;;;12.20;3.97;;;;;;;;;;5069786;28;20462;-66
2023/07/16 14:19:08;;;;;;;5.15;3.58;;;;;;;;;;5072398;28;20043;-66
2023/07/16 14:21:33;;;;;;;7.03;3.77;;;;;;;;;;5071177;28;20158;-66
2023/07/16 14:23:58;;;;;;;4.70;2.77;;;;;;;;;;5071802;28;20021;-67
2023/07/16 14:26:23;;;;;;;4.80;3.13;;;;;;;;;;5068994;28;20047;-66
2023/07/16 14:28:48;;;;;;;4.63;2.40;;;;;;;;;;5054866;28;20526;-66